sensor_id;sensor_type;location;lat;lon;timestamp;P1;durP1;ratioP1;P2;durP2;ratioP2
43682;SDS011;29285;52.128;21.060;2022-12-13T00:02:03;7.77;;;5.73;;
43682;SDS011;29285;52.128;21.060;2022-12-13T00:07:05;9.20;;;5.95;;
43682;SDS011;29285;52.128;21.060;2022-12-13T00:12:06;8.70;;;6.53;;
43682;SDS011;29285;52.128;21.060;2022-12-13T00:17:08;11.43;;;6.13;;
43682;SDS011;29285;52.128;21.060;2022-12-13T00:22:09;9.23;;;6.33;;
43682;SDS011;29285;52.128;21.060;2022-12-13T00:27:10;10.37;;;5.40;;
43682;SDS011;29285;52.128;21.060;2022-12-13T00:32:12;7.90;;;5.67;;
43682;SDS011;29285;52.128;21.060;2022-12-13T00:37:13;9.97;;;5.80;;
43682;SDS011;29285;52.128;21.060;2022-12-13T00:42:15;10.57;;;5.90;;
43682;SDS011;29285;52.128;21.060;2022-12-13T00:47:16;10.40;;;5.77;;
43682;SDS011;29285;52.128;21.060;2022-12-13T00:52:19;9.10;;;6.03;;
43682;SDS011;29285;52.128;21.060;2022-12-13T00:57:21;8.77;;;6.50;;
43682;SDS011;29285;52.128;21.060;2022-12-13T01:02:22;8.57;;;6.20;;
43682;SDS011;29285;52.128;21.060;2022-12-13T01:07:23;6.50;;;5.63;;
43682;SDS011;29285;52.128;21.060;2022-12-13T01:12:25;10.07;;;6.20;;
43682;SDS011;29285;52.128;21.060;2022-12-13T01:17:26;6.00;;;4.97;;
43682;SDS011;29285;52.128;21.060;2022-12-13T01:22:30;8.93;;;5.13;;
43682;SDS011;29285;52.128;21.060;2022-12-13T01:27:31;10.53;;;5.90;;
43682;SDS011;29285;52.128;21.060;2022-12-13T01:32:34;8.00;;;5.43;;
43682;SDS011;29285;52.128;21.060;2022-12-13T01:37:35;8.40;;;6.70;;
43682;SDS011;29285;52.128;21.060;2022-12-13T01:42:37;8.70;;;6.50;;
43682;SDS011;29285;52.128;21.060;2022-12-13T01:47:44;6.45;;;4.12;;
43682;SDS011;29285;52.128;21.060;2022-12-13T01:52:47;9.70;;;6.00;;
43682;SDS011;29285;52.128;21.060;2022-12-13T01:57:50;8.57;;;6.00;;
43682;SDS011;29285;52.128;21.060;2022-12-13T02:02:54;8.30;;;5.17;;
43682;SDS011;29285;52.128;21.060;2022-12-13T02:13:00;8.07;;;6.30;;
43682;SDS011;29285;52.128;21.060;2022-12-13T02:18:19;8.73;;;5.50;;
43682;SDS011;29285;52.128;21.060;2022-12-13T02:23:47;7.87;;;5.40;;
43682;SDS011;29285;52.128;21.060;2022-12-13T02:34:56;10.95;;;5.85;;
43682;SDS011;29285;52.128;21.060;2022-12-13T02:40:17;9.83;;;6.67;;
43682;SDS011;29285;52.128;21.060;2022-12-13T02:45:31;8.63;;;6.30;;
43682;SDS011;29285;52.128;21.060;2022-12-13T02:50:54;10.47;;;7.00;;
43682;SDS011;29285;52.128;21.060;2022-12-13T02:55:56;8.67;;;5.50;;
43682;SDS011;29285;52.128;21.060;2022-12-13T03:17:18;8.40;;;6.08;;
43682;SDS011;29285;52.128;21.060;2022-12-13T03:22:21;8.08;;;6.30;;
43682;SDS011;29285;52.128;21.060;2022-12-13T03:27:23;8.43;;;5.57;;
43682;SDS011;29285;52.128;21.060;2022-12-13T03:32:24;8.50;;;6.07;;
43682;SDS011;29285;52.128;21.060;2022-12-13T03:37:26;7.70;;;5.40;;
43682;SDS011;29285;52.128;21.060;2022-12-13T03:42:27;11.37;;;7.00;;
43682;SDS011;29285;52.128;21.060;2022-12-13T03:47:29;10.83;;;6.90;;
43682;SDS011;29285;52.128;21.060;2022-12-13T03:52:30;9.70;;;7.67;;
43682;SDS011;29285;52.128;21.060;2022-12-13T03:57:31;7.50;;;6.07;;
43682;SDS011;29285;52.128;21.060;2022-12-13T04:02:33;9.63;;;6.83;;
43682;SDS011;29285;52.128;21.060;2022-12-13T04:07:34;13.00;;;8.77;;
43682;SDS011;29285;52.128;21.060;2022-12-13T04:12:35;12.50;;;9.10;;
43682;SDS011;29285;52.128;21.060;2022-12-13T04:17:55;12.37;;;8.07;;
43682;SDS011;29285;52.128;21.060;2022-12-13T04:22:57;11.97;;;8.70;;
43682;SDS011;29285;52.128;21.060;2022-12-13T04:27:58;13.37;;;9.37;;
43682;SDS011;29285;52.128;21.060;2022-12-13T04:33:00;12.07;;;8.00;;
43682;SDS011;29285;52.128;21.060;2022-12-13T04:38:02;12.60;;;7.90;;
43682;SDS011;29285;52.128;21.060;2022-12-13T04:43:03;11.23;;;7.90;;
43682;SDS011;29285;52.128;21.060;2022-12-13T04:48:05;13.87;;;9.50;;
43682;SDS011;29285;52.128;21.060;2022-12-13T04:53:06;11.93;;;8.40;;
43682;SDS011;29285;52.128;21.060;2022-12-13T04:58:09;13.03;;;9.30;;
43682;SDS011;29285;52.128;21.060;2022-12-13T05:03:11;15.13;;;9.37;;
43682;SDS011;29285;52.128;21.060;2022-12-13T05:08:12;12.53;;;8.47;;
43682;SDS011;29285;52.128;21.060;2022-12-13T05:13:13;10.40;;;8.10;;
43682;SDS011;29285;52.128;21.060;2022-12-13T05:18:14;11.47;;;8.27;;
43682;SDS011;29285;52.128;21.060;2022-12-13T05:23:16;13.00;;;8.43;;
43682;SDS011;29285;52.128;21.060;2022-12-13T05:28:19;10.82;;;7.45;;
43682;SDS011;29285;52.128;21.060;2022-12-13T05:33:21;13.10;;;8.00;;
43682;SDS011;29285;52.128;21.060;2022-12-13T05:38:24;9.80;;;6.50;;
43682;SDS011;29285;52.128;21.060;2022-12-13T05:43:25;12.03;;;8.67;;
43682;SDS011;29285;52.128;21.060;2022-12-13T05:48:26;10.47;;;8.03;;
43682;SDS011;29285;52.128;21.060;2022-12-13T05:53:27;9.27;;;6.73;;
43682;SDS011;29285;52.128;21.060;2022-12-13T05:58:28;11.07;;;7.70;;
43682;SDS011;29285;52.128;21.060;2022-12-13T06:03:30;12.80;;;8.10;;
43682;SDS011;29285;52.128;21.060;2022-12-13T06:08:31;12.37;;;8.20;;
43682;SDS011;29285;52.128;21.060;2022-12-13T06:13:33;11.40;;;7.57;;
43682;SDS011;29285;52.128;21.060;2022-12-13T06:18:34;9.13;;;6.87;;
43682;SDS011;29285;52.128;21.060;2022-12-13T06:23:36;10.13;;;7.17;;
43682;SDS011;29285;52.128;21.060;2022-12-13T06:28:38;8.27;;;5.73;;
43682;SDS011;29285;52.128;21.060;2022-12-13T06:33:39;7.43;;;5.00;;
43682;SDS011;29285;52.128;21.060;2022-12-13T06:38:40;10.27;;;6.37;;
43682;SDS011;29285;52.128;21.060;2022-12-13T06:43:42;9.70;;;6.30;;
43682;SDS011;29285;52.128;21.060;2022-12-13T06:48:46;8.83;;;6.78;;
43682;SDS011;29285;52.128;21.060;2022-12-13T06:53:47;8.40;;;5.90;;
43682;SDS011;29285;52.128;21.060;2022-12-13T06:58:48;7.60;;;5.10;;
43682;SDS011;29285;52.128;21.060;2022-12-13T07:03:50;9.53;;;6.50;;
43682;SDS011;29285;52.128;21.060;2022-12-13T07:08:54;7.97;;;5.45;;
43682;SDS011;29285;52.128;21.060;2022-12-13T07:13:58;7.17;;;5.35;;
43682;SDS011;29285;52.128;21.060;2022-12-13T07:19:00;8.03;;;4.37;;
43682;SDS011;29285;52.128;21.060;2022-12-13T07:24:04;8.20;;;4.60;;
43682;SDS011;29285;52.128;21.060;2022-12-13T07:29:06;6.83;;;4.47;;
43682;SDS011;29285;52.128;21.060;2022-12-13T07:34:07;8.73;;;4.53;;
43682;SDS011;29285;52.128;21.060;2022-12-13T07:39:09;5.97;;;5.03;;
43682;SDS011;29285;52.128;21.060;2022-12-13T07:44:10;8.63;;;4.80;;
43682;SDS011;29285;52.128;21.060;2022-12-13T07:49:11;9.57;;;5.70;;
43682;SDS011;29285;52.128;21.060;2022-12-13T07:54:13;8.37;;;5.73;;
43682;SDS011;29285;52.128;21.060;2022-12-13T07:59:14;5.17;;;3.67;;
43682;SDS011;29285;52.128;21.060;2022-12-13T08:04:16;7.67;;;5.37;;
43682;SDS011;29285;52.128;21.060;2022-12-13T08:09:17;9.10;;;6.60;;
43682;SDS011;29285;52.128;21.060;2022-12-13T08:14:19;7.30;;;5.07;;
43682;SDS011;29285;52.128;21.060;2022-12-13T08:19:20;8.73;;;6.50;;
43682;SDS011;29285;52.128;21.060;2022-12-13T08:24:22;7.80;;;5.97;;
43682;SDS011;29285;52.128;21.060;2022-12-13T08:29:26;8.53;;;6.03;;
43682;SDS011;29285;52.128;21.060;2022-12-13T08:34:29;7.90;;;4.93;;
43682;SDS011;29285;52.128;21.060;2022-12-13T08:39:32;9.60;;;6.17;;
43682;SDS011;29285;52.128;21.060;2022-12-13T08:44:35;7.57;;;5.93;;
43682;SDS011;29285;52.128;21.060;2022-12-13T08:49:37;7.93;;;5.77;;
43682;SDS011;29285;52.128;21.060;2022-12-13T08:54:38;8.87;;;6.03;;
43682;SDS011;29285;52.128;21.060;2022-12-13T08:59:40;9.53;;;6.30;;
43682;SDS011;29285;52.128;21.060;2022-12-13T09:04:41;9.00;;;5.47;;
43682;SDS011;29285;52.128;21.060;2022-12-13T09:09:43;8.37;;;6.10;;
43682;SDS011;29285;52.128;21.060;2022-12-13T09:14:44;9.23;;;6.83;;
43682;SDS011;29285;52.128;21.060;2022-12-13T09:19:47;7.53;;;5.20;;
43682;SDS011;29285;52.128;21.060;2022-12-13T09:24:48;7.07;;;5.20;;
43682;SDS011;29285;52.128;21.060;2022-12-13T09:29:49;7.63;;;5.40;;
43682;SDS011;29285;52.128;21.060;2022-12-13T09:34:51;7.80;;;5.20;;
43682;SDS011;29285;52.128;21.060;2022-12-13T09:39:52;8.33;;;5.90;;
43682;SDS011;29285;52.128;21.060;2022-12-13T09:44:54;6.90;;;4.90;;
43682;SDS011;29285;52.128;21.060;2022-12-13T09:50:00;8.10;;;4.90;;
43682;SDS011;29285;52.128;21.060;2022-12-13T09:55:22;6.40;;;4.87;;
43682;SDS011;29285;52.128;21.060;2022-12-13T10:00:33;9.70;;;5.97;;
43682;SDS011;29285;52.128;21.060;2022-12-13T10:05:36;7.33;;;5.23;;
43682;SDS011;29285;52.128;21.060;2022-12-13T10:10:39;5.63;;;5.10;;
43682;SDS011;29285;52.128;21.060;2022-12-13T10:15:42;8.07;;;5.10;;
43682;SDS011;29285;52.128;21.060;2022-12-13T10:20:57;9.57;;;6.27;;
43682;SDS011;29285;52.128;21.060;2022-12-13T10:25:59;4.77;;;3.83;;
43682;SDS011;29285;52.128;21.060;2022-12-13T10:31:01;7.40;;;5.23;;
43682;SDS011;29285;52.128;21.060;2022-12-13T10:36:08;6.97;;;5.57;;
43682;SDS011;29285;52.128;21.060;2022-12-13T10:46:31;7.27;;;5.43;;
43682;SDS011;29285;52.128;21.060;2022-12-13T10:51:36;7.60;;;5.20;;
43682;SDS011;29285;52.128;21.060;2022-12-13T10:56:48;6.80;;;5.10;;
43682;SDS011;29285;52.128;21.060;2022-12-13T11:01:50;9.67;;;5.90;;
43682;SDS011;29285;52.128;21.060;2022-12-13T11:06:52;8.87;;;6.37;;
43682;SDS011;29285;52.128;21.060;2022-12-13T11:11:54;6.77;;;5.50;;
43682;SDS011;29285;52.128;21.060;2022-12-13T11:17:07;6.57;;;4.87;;
43682;SDS011;29285;52.128;21.060;2022-12-13T11:22:24;11.50;;;5.97;;
43682;SDS011;29285;52.128;21.060;2022-12-13T11:32:59;8.37;;;5.87;;
43682;SDS011;29285;52.128;21.060;2022-12-13T11:48:45;10.63;;;6.77;;
43682;SDS011;29285;52.128;21.060;2022-12-13T11:53:41;7.63;;;4.97;;
43682;SDS011;29285;52.128;21.060;2022-12-13T11:58:50;9.87;;;6.80;;
43682;SDS011;29285;52.128;21.060;2022-12-13T12:15:23;8.57;;;5.93;;
43682;SDS011;29285;52.128;21.060;2022-12-13T12:26:12;8.53;;;6.20;;
43682;SDS011;29285;52.128;21.060;2022-12-13T12:42:12;8.97;;;5.33;;
43682;SDS011;29285;52.128;21.060;2022-12-13T12:47:29;12.33;;;6.90;;
43682;SDS011;29285;52.128;21.060;2022-12-13T12:58:18;10.38;;;6.92;;
43682;SDS011;29285;52.128;21.060;2022-12-13T13:03:25;8.60;;;5.83;;
43682;SDS011;29285;52.128;21.060;2022-12-13T13:13:47;10.38;;;6.83;;
43682;SDS011;29285;52.128;21.060;2022-12-13T13:19:00;9.03;;;6.78;;
43682;SDS011;29285;52.128;21.060;2022-12-13T13:24:19;9.93;;;5.93;;
43682;SDS011;29285;52.128;21.060;2022-12-13T13:34:32;8.40;;;6.15;;
43682;SDS011;29285;52.128;21.060;2022-12-13T13:39:40;7.43;;;5.87;;
43682;SDS011;29285;52.128;21.060;2022-12-13T13:45:18;11.30;;;6.08;;
43682;SDS011;29285;52.128;21.060;2022-12-13T14:06:58;12.57;;;7.17;;
43682;SDS011;29285;52.128;21.060;2022-12-13T14:23:37;12.10;;;6.20;;
43682;SDS011;29285;52.128;21.060;2022-12-13T14:29:10;12.50;;;6.63;;
43682;SDS011;29285;52.128;21.060;2022-12-13T14:34:22;12.47;;;7.90;;
43682;SDS011;29285;52.128;21.060;2022-12-13T14:39:27;15.17;;;7.30;;
43682;SDS011;29285;52.128;21.060;2022-12-13T14:44:31;15.75;;;6.90;;
43682;SDS011;29285;52.128;21.060;2022-12-13T14:49:38;10.15;;;6.92;;
43682;SDS011;29285;52.128;21.060;2022-12-13T14:54:53;10.33;;;6.00;;
43682;SDS011;29285;52.128;21.060;2022-12-13T15:00:00;10.50;;;6.23;;
43682;SDS011;29285;52.128;21.060;2022-12-13T15:10:44;11.97;;;6.90;;
43682;SDS011;29285;52.128;21.060;2022-12-13T15:15:51;13.20;;;7.27;;
43682;SDS011;29285;52.128;21.060;2022-12-13T15:20:55;10.97;;;7.30;;
43682;SDS011;29285;52.128;21.060;2022-12-13T15:25:59;12.10;;;7.30;;
43682;SDS011;29285;52.128;21.060;2022-12-13T15:31:22;16.30;;;10.03;;
43682;SDS011;29285;52.128;21.060;2022-12-13T15:36:24;12.50;;;7.23;;
43682;SDS011;29285;52.128;21.060;2022-12-13T15:41:32;11.10;;;7.30;;
43682;SDS011;29285;52.128;21.060;2022-12-13T15:46:37;12.63;;;7.90;;
43682;SDS011;29285;52.128;21.060;2022-12-13T15:51:55;13.17;;;8.13;;
43682;SDS011;29285;52.128;21.060;2022-12-13T15:57:22;13.17;;;7.30;;
43682;SDS011;29285;52.128;21.060;2022-12-13T16:02:23;13.95;;;8.45;;
43682;SDS011;29285;52.128;21.060;2022-12-13T16:07:28;16.45;;;9.45;;
43682;SDS011;29285;52.128;21.060;2022-12-13T16:12:37;16.20;;;10.47;;
43682;SDS011;29285;52.128;21.060;2022-12-13T16:17:44;15.07;;;9.13;;
43682;SDS011;29285;52.128;21.060;2022-12-13T16:22:49;17.57;;;10.23;;
43682;SDS011;29285;52.128;21.060;2022-12-13T16:27:51;16.50;;;10.17;;
43682;SDS011;29285;52.128;21.060;2022-12-13T16:32:52;24.37;;;12.13;;
43682;SDS011;29285;52.128;21.060;2022-12-13T16:37:54;14.23;;;9.40;;
43682;SDS011;29285;52.128;21.060;2022-12-13T16:42:56;19.23;;;11.73;;
43682;SDS011;29285;52.128;21.060;2022-12-13T16:48:02;20.07;;;12.03;;
43682;SDS011;29285;52.128;21.060;2022-12-13T16:53:06;15.25;;;9.53;;
43682;SDS011;29285;52.128;21.060;2022-12-13T16:58:11;18.13;;;11.47;;
43682;SDS011;29285;52.128;21.060;2022-12-13T17:03:16;20.70;;;12.13;;
43682;SDS011;29285;52.128;21.060;2022-12-13T17:08:17;21.17;;;13.17;;
43682;SDS011;29285;52.128;21.060;2022-12-13T17:13:18;21.63;;;12.57;;
43682;SDS011;29285;52.128;21.060;2022-12-13T17:18:20;19.80;;;11.80;;
43682;SDS011;29285;52.128;21.060;2022-12-13T17:23:22;21.50;;;13.63;;
43682;SDS011;29285;52.128;21.060;2022-12-13T17:28:23;19.87;;;10.90;;
43682;SDS011;29285;52.128;21.060;2022-12-13T17:33:24;18.53;;;12.70;;
43682;SDS011;29285;52.128;21.060;2022-12-13T17:38:25;19.53;;;12.50;;
43682;SDS011;29285;52.128;21.060;2022-12-13T17:43:27;18.47;;;10.97;;
43682;SDS011;29285;52.128;21.060;2022-12-13T17:48:29;20.73;;;13.53;;
43682;SDS011;29285;52.128;21.060;2022-12-13T17:53:30;17.33;;;11.87;;
43682;SDS011;29285;52.128;21.060;2022-12-13T17:58:31;23.33;;;13.23;;
43682;SDS011;29285;52.128;21.060;2022-12-13T18:03:33;20.40;;;13.00;;
43682;SDS011;29285;52.128;21.060;2022-12-13T18:08:35;23.47;;;13.80;;
43682;SDS011;29285;52.128;21.060;2022-12-13T18:13:39;26.15;;;14.53;;
43682;SDS011;29285;52.128;21.060;2022-12-13T18:18:41;23.17;;;13.23;;
43682;SDS011;29285;52.128;21.060;2022-12-13T18:23:43;23.90;;;14.40;;
43682;SDS011;29285;52.128;21.060;2022-12-13T18:28:45;25.93;;;13.97;;
43682;SDS011;29285;52.128;21.060;2022-12-13T18:33:47;21.90;;;11.67;;
43682;SDS011;29285;52.128;21.060;2022-12-13T18:38:51;27.13;;;15.20;;
43682;SDS011;29285;52.128;21.060;2022-12-13T18:43:57;20.77;;;13.33;;
43682;SDS011;29285;52.128;21.060;2022-12-13T18:49:05;25.50;;;15.90;;
43682;SDS011;29285;52.128;21.060;2022-12-13T18:54:07;26.77;;;15.67;;
43682;SDS011;29285;52.128;21.060;2022-12-13T18:59:08;26.57;;;15.43;;
43682;SDS011;29285;52.128;21.060;2022-12-13T19:04:11;27.87;;;17.05;;
43682;SDS011;29285;52.128;21.060;2022-12-13T19:09:13;33.23;;;18.17;;
43682;SDS011;29285;52.128;21.060;2022-12-13T19:14:15;26.23;;;15.83;;
43682;SDS011;29285;52.128;21.060;2022-12-13T19:19:16;23.27;;;13.10;;
43682;SDS011;29285;52.128;21.060;2022-12-13T19:24:18;27.87;;;17.80;;
43682;SDS011;29285;52.128;21.060;2022-12-13T19:29:19;27.40;;;17.83;;
43682;SDS011;29285;52.128;21.060;2022-12-13T19:34:21;29.03;;;17.17;;
43682;SDS011;29285;52.128;21.060;2022-12-13T19:39:23;28.33;;;17.53;;
43682;SDS011;29285;52.128;21.060;2022-12-13T19:44:24;23.50;;;13.03;;
43682;SDS011;29285;52.128;21.060;2022-12-13T19:49:26;28.03;;;15.57;;
43682;SDS011;29285;52.128;21.060;2022-12-13T19:54:27;27.23;;;16.13;;
43682;SDS011;29285;52.128;21.060;2022-12-13T19:59:28;30.13;;;18.87;;
43682;SDS011;29285;52.128;21.060;2022-12-13T20:04:30;26.50;;;14.27;;
43682;SDS011;29285;52.128;21.060;2022-12-13T20:09:31;29.20;;;18.17;;
43682;SDS011;29285;52.128;21.060;2022-12-13T20:14:32;30.30;;;17.43;;
43682;SDS011;29285;52.128;21.060;2022-12-13T20:19:34;31.70;;;18.27;;
43682;SDS011;29285;52.128;21.060;2022-12-13T20:24:35;26.00;;;17.27;;
43682;SDS011;29285;52.128;21.060;2022-12-13T20:29:36;33.70;;;17.77;;
43682;SDS011;29285;52.128;21.060;2022-12-13T20:34:38;33.97;;;20.20;;
43682;SDS011;29285;52.128;21.060;2022-12-13T20:39:39;31.20;;;18.00;;
43682;SDS011;29285;52.128;21.060;2022-12-13T20:44:41;32.87;;;18.97;;
43682;SDS011;29285;52.128;21.060;2022-12-13T20:49:43;34.10;;;19.40;;
43682;SDS011;29285;52.128;21.060;2022-12-13T20:54:44;30.90;;;18.10;;
43682;SDS011;29285;52.128;21.060;2022-12-13T20:59:45;32.87;;;18.53;;
43682;SDS011;29285;52.128;21.060;2022-12-13T21:04:47;32.63;;;19.57;;
43682;SDS011;29285;52.128;21.060;2022-12-13T21:09:48;37.33;;;20.70;;
43682;SDS011;29285;52.128;21.060;2022-12-13T21:14:50;30.37;;;17.87;;
43682;SDS011;29285;52.128;21.060;2022-12-13T21:19:51;34.30;;;18.33;;
43682;SDS011;29285;52.128;21.060;2022-12-13T21:24:52;31.73;;;17.67;;
43682;SDS011;29285;52.128;21.060;2022-12-13T21:29:54;21.60;;;13.17;;
43682;SDS011;29285;52.128;21.060;2022-12-13T21:34:56;31.33;;;17.80;;
43682;SDS011;29285;52.128;21.060;2022-12-13T21:39:57;33.90;;;22.63;;
43682;SDS011;29285;52.128;21.060;2022-12-13T21:44:58;36.37;;;19.53;;
43682;SDS011;29285;52.128;21.060;2022-12-13T21:50:00;36.70;;;19.90;;
43682;SDS011;29285;52.128;21.060;2022-12-13T21:55:01;35.80;;;19.10;;
43682;SDS011;29285;52.128;21.060;2022-12-13T22:00:03;33.80;;;18.83;;
43682;SDS011;29285;52.128;21.060;2022-12-13T22:05:07;41.30;;;21.30;;
43682;SDS011;29285;52.128;21.060;2022-12-13T22:10:09;30.80;;;19.50;;
43682;SDS011;29285;52.128;21.060;2022-12-13T22:15:12;34.47;;;20.80;;
43682;SDS011;29285;52.128;21.060;2022-12-13T22:20:15;38.07;;;21.40;;
43682;SDS011;29285;52.128;21.060;2022-12-13T22:25:17;33.53;;;18.23;;
43682;SDS011;29285;52.128;21.060;2022-12-13T22:30:18;39.40;;;21.60;;
43682;SDS011;29285;52.128;21.060;2022-12-13T22:35:19;28.17;;;17.00;;
43682;SDS011;29285;52.128;21.060;2022-12-13T22:40:21;36.37;;;20.17;;
43682;SDS011;29285;52.128;21.060;2022-12-13T22:45:22;41.30;;;22.67;;
43682;SDS011;29285;52.128;21.060;2022-12-13T22:50:23;37.87;;;21.80;;
43682;SDS011;29285;52.128;21.060;2022-12-13T22:55:24;37.07;;;20.23;;
43682;SDS011;29285;52.128;21.060;2022-12-13T23:00:26;40.90;;;21.57;;
43682;SDS011;29285;52.128;21.060;2022-12-13T23:05:27;37.37;;;21.53;;
43682;SDS011;29285;52.128;21.060;2022-12-13T23:10:30;32.23;;;18.40;;
43682;SDS011;29285;52.128;21.060;2022-12-13T23:15:49;42.37;;;21.47;;
43682;SDS011;29285;52.128;21.060;2022-12-13T23:20:51;40.60;;;23.00;;
43682;SDS011;29285;52.128;21.060;2022-12-13T23:25:52;40.23;;;22.50;;
43682;SDS011;29285;52.128;21.060;2022-12-13T23:30:53;41.43;;;22.73;;
43682;SDS011;29285;52.128;21.060;2022-12-13T23:36:03;44.97;;;22.23;;
43682;SDS011;29285;52.128;21.060;2022-12-13T23:41:21;38.33;;;21.97;;
43682;SDS011;29285;52.128;21.060;2022-12-13T23:46:26;46.80;;;24.30;;
43682;SDS011;29285;52.128;21.060;2022-12-13T23:51:31;44.23;;;23.20;;
43682;SDS011;29285;52.128;21.060;2022-12-13T23:56:34;38.80;;;22.80;;
